createdAt,value
2023-03-11T00:00:51.078Z,21.76
2023-03-11T00:05:55.915Z,21.76
2023-03-11T00:11:01.453Z,21.75
2023-03-11T00:16:04.594Z,21.72
2023-03-11T00:21:16.956Z,21.72
2023-03-11T00:26:20.022Z,21.69
2023-03-11T00:31:23.263Z,21.67
2023-03-11T00:36:31.447Z,21.67
2023-03-11T00:41:35.272Z,21.61
2023-03-11T00:46:38.047Z,21.62
2023-03-11T00:51:43.287Z,21.62
2023-03-11T00:56:46.503Z,21.60
2023-03-11T01:01:49.771Z,21.57
2023-03-11T01:06:53.871Z,21.57
2023-03-11T01:11:56.743Z,21.49
2023-03-11T01:16:59.489Z,21.46
2023-03-11T01:22:03.628Z,21.42
2023-03-11T01:27:06.442Z,21.41
2023-03-11T01:32:09.236Z,21.38
2023-03-11T01:37:13.956Z,21.37
2023-03-11T01:42:17.025Z,21.33
2023-03-11T01:47:36.545Z,21.30
2023-03-11T01:52:42.267Z,21.23
2023-03-11T01:57:48.300Z,21.18
2023-03-11T02:02:53.793Z,21.14
2023-03-11T02:07:59.563Z,21.09
2023-03-11T02:13:06.805Z,21.04
2023-03-11T02:18:10.555Z,21.00
2023-03-11T02:23:16.835Z,20.98
2023-03-11T02:28:23.025Z,20.93
2023-03-11T02:33:30.083Z,20.90
2023-03-11T02:38:32.918Z,20.85
2023-03-11T02:43:42.867Z,20.84
2023-03-11T02:48:48.585Z,20.79
2023-03-11T02:53:53.993Z,20.76
2023-03-11T02:58:58.387Z,20.75
2023-03-11T03:04:02.233Z,20.69
2023-03-11T03:09:08.209Z,20.65
2023-03-11T03:14:12.480Z,20.64
2023-03-11T03:19:15.327Z,20.59
2023-03-11T03:24:18.631Z,20.56
2023-03-11T03:29:22.792Z,20.53
2023-03-11T03:34:26.212Z,20.49
2023-03-11T03:39:30.705Z,20.46
2023-03-11T03:44:36.060Z,20.41
2023-03-11T03:49:38.922Z,20.38
2023-03-11T03:54:42.276Z,20.33
2023-03-11T03:59:46.582Z,20.31
2023-03-11T04:04:49.826Z,20.28
2023-03-11T04:09:52.640Z,20.25
2023-03-11T04:14:56.826Z,20.21
2023-03-11T04:19:59.786Z,20.22
2023-03-11T04:25:02.869Z,20.21
2023-03-11T04:30:10.760Z,20.17
2023-03-11T04:35:13.613Z,20.14
2023-03-11T04:40:17.068Z,20.10
2023-03-11T04:45:22.071Z,20.07
2023-03-11T04:50:26.497Z,20.04
2023-03-11T04:55:30.214Z,20.04
2023-03-11T05:00:34.575Z,19.99
2023-03-11T05:05:46.015Z,19.98
2023-03-11T05:10:49.256Z,19.98
2023-03-11T05:15:53.407Z,19.97
2023-03-11T05:20:56.660Z,19.95
2023-03-11T05:26:02.791Z,19.93
2023-03-11T05:31:13.591Z,19.92
2023-03-11T05:36:17.296Z,19.91
2023-03-11T05:41:21.599Z,19.89
2023-03-11T05:46:25.965Z,19.86
2023-03-11T05:51:29.411Z,19.85
2023-03-11T05:56:32.517Z,19.84
2023-03-11T06:01:37.405Z,19.79
2023-03-11T06:06:41.175Z,19.79
2023-03-11T06:11:44.309Z,19.77
2023-03-11T06:16:49.432Z,19.76
2023-03-11T06:21:54.165Z,19.76
2023-03-11T06:26:57.056Z,19.76
2023-03-11T06:32:03.726Z,19.74
2023-03-11T06:37:06.785Z,19.71
2023-03-11T06:42:11.630Z,19.71
2023-03-11T06:47:16.218Z,19.70
2023-03-11T06:52:19.704Z,19.70
2023-03-11T06:57:22.623Z,19.69
2023-03-11T07:02:28.643Z,19.68
2023-03-11T07:07:32.153Z,19.66
2023-03-11T07:12:36.532Z,19.65
2023-03-11T07:17:40.758Z,19.64
2023-03-11T07:22:44.330Z,19.65
2023-03-11T07:27:47.045Z,19.63
2023-03-11T07:32:51.245Z,19.62
2023-03-11T07:37:53.962Z,19.60
2023-03-11T07:42:56.677Z,19.61
2023-03-11T07:48:00.760Z,19.61
2023-03-11T07:53:03.509Z,19.59
2023-03-11T07:58:06.343Z,19.58
2023-03-11T08:03:10.417Z,19.62
2023-03-11T08:08:13.284Z,19.69
2023-03-11T08:13:16.295Z,19.76
2023-03-11T08:18:20.465Z,17.70
2023-03-11T08:23:23.272Z,16.43
2023-03-11T08:28:26.265Z,18.73
2023-03-11T08:33:30.679Z,19.37
2023-03-11T08:38:33.573Z,19.66
2023-03-11T08:43:36.707Z,19.84
2023-03-11T08:48:40.773Z,19.97
2023-03-11T08:53:43.650Z,20.10
2023-03-11T08:58:46.917Z,20.23
2023-03-11T09:03:50.989Z,20.29
2023-03-11T09:08:53.683Z,20.37
2023-03-11T09:13:56.506Z,20.45
2023-03-11T09:19:03.867Z,20.50
2023-03-11T09:24:07.413Z,20.56
2023-03-11T09:29:10.256Z,20.64
2023-03-11T09:34:16.199Z,20.72
2023-03-11T09:39:19.008Z,20.79
2023-03-11T09:44:27.646Z,20.85
2023-03-11T09:49:41.506Z,20.91
2023-03-11T09:54:47.801Z,20.96
2023-03-11T09:59:51.398Z,20.99
2023-03-11T10:05:00.179Z,21.02
2023-03-11T10:10:03.727Z,21.05
2023-03-11T10:15:19.994Z,21.09
2023-03-11T10:20:28.968Z,21.11
2023-03-11T10:25:43.267Z,21.15
2023-03-11T10:30:49.054Z,20.63
2023-03-11T10:35:55.996Z,20.94
2023-03-11T10:41:04.151Z,21.05
2023-03-11T10:46:16.389Z,21.13
2023-03-11T10:51:23.573Z,21.20
2023-03-11T10:56:31.739Z,20.56
2023-03-11T11:01:35.098Z,20.90
2023-03-11T11:06:39.156Z,21.03
2023-03-11T11:11:42.054Z,21.11
2023-03-11T11:16:46.047Z,21.21
2023-03-11T11:21:52.341Z,21.28
2023-03-11T11:27:05.050Z,21.32
2023-03-11T11:32:20.113Z,21.35
2023-03-11T11:37:26.768Z,21.37
2023-03-11T11:42:32.276Z,21.38
2023-03-11T11:47:36.869Z,21.43
2023-03-11T11:52:48.317Z,21.45
2023-03-11T11:57:52.417Z,21.47
2023-03-11T12:03:13.606Z,21.47
2023-03-11T12:08:22.829Z,21.54
2023-03-11T12:13:51.452Z,21.55
2023-03-11T12:18:58.938Z,21.55
2023-03-11T12:24:20.784Z,21.55
2023-03-11T12:29:28.574Z,21.56
2023-03-11T12:34:35.245Z,21.59
2023-03-11T12:39:39.402Z,21.61
2023-03-11T12:44:42.428Z,21.62
2023-03-11T12:49:46.816Z,21.64
2023-03-11T12:55:32.601Z,21.63
2023-03-11T13:00:53.699Z,21.68
2023-03-11T13:06:04.585Z,21.70
2023-03-11T13:11:42.744Z,21.72
2023-03-11T13:16:46.633Z,21.73
2023-03-11T13:21:49.357Z,21.73
2023-03-11T13:27:04.880Z,21.73
2023-03-11T13:32:25.932Z,21.74
2023-03-11T13:37:43.488Z,21.74
2023-03-11T13:42:50.820Z,21.75
2023-03-11T13:47:57.390Z,21.76
2023-03-11T13:53:04.530Z,21.77
2023-03-11T13:58:20.913Z,21.78
2023-03-11T14:03:25.529Z,21.79
2023-03-11T14:08:30.015Z,21.89
2023-03-11T14:13:39.624Z,22.08
2023-03-11T14:18:44.325Z,22.08
2023-03-11T14:23:49.646Z,22.16
2023-03-11T14:28:56.345Z,22.18
2023-03-11T14:34:04.291Z,22.13
2023-03-11T14:39:07.057Z,22.12
2023-03-11T14:44:13.079Z,22.13
2023-03-11T14:49:21.217Z,22.10
2023-03-11T14:54:27.534Z,22.08
2023-03-11T14:59:33.882Z,22.11
2023-03-11T15:04:44.159Z,22.16
2023-03-11T15:09:47.966Z,22.25
2023-03-11T15:14:52.926Z,22.22
2023-03-11T15:19:56.182Z,22.24
2023-03-11T15:25:01.023Z,22.24
2023-03-11T15:30:18.607Z,22.52
2023-03-11T15:35:24.090Z,22.55
2023-03-11T15:40:44.308Z,23.07
2023-03-11T15:45:49.859Z,23.27
2023-03-11T15:50:54.818Z,22.94
2023-03-11T15:56:07.259Z,22.85
2023-03-11T16:01:12.185Z,22.80
2023-03-11T16:06:14.859Z,22.71
2023-03-11T16:11:18.679Z,22.78
2023-03-11T16:16:23.105Z,22.61
2023-03-11T16:21:33.354Z,22.67
2023-03-11T16:26:36.673Z,22.62
2023-03-11T16:31:40.700Z,22.60
2023-03-11T16:36:43.401Z,22.67
2023-03-11T16:41:46.187Z,22.64
2023-03-11T16:46:50.453Z,22.62
2023-03-11T16:51:53.296Z,22.59
2023-03-11T16:56:55.981Z,22.59
2023-03-11T17:02:00.110Z,22.56
2023-03-11T17:07:02.863Z,22.49
2023-03-11T17:12:06.331Z,22.39
2023-03-11T17:17:10.536Z,22.33
2023-03-11T17:22:14.582Z,22.27
2023-03-11T17:27:17.409Z,22.23
2023-03-11T17:32:21.564Z,22.21
2023-03-11T17:37:24.475Z,22.23
2023-03-11T17:42:27.392Z,22.25
2023-03-11T17:47:33.055Z,22.22
2023-03-11T17:52:36.026Z,22.24
2023-03-11T17:57:45.366Z,22.25
2023-03-11T18:02:51.201Z,22.25
2023-03-11T18:07:53.878Z,22.26
2023-03-11T18:12:56.705Z,22.25
2023-03-11T18:18:00.753Z,22.24
2023-03-11T18:23:03.509Z,22.24
2023-03-11T18:28:06.229Z,22.23
2023-03-11T18:33:10.404Z,22.25
2023-03-11T18:38:13.102Z,22.23
2023-03-11T18:43:15.787Z,22.24
2023-03-11T18:48:19.895Z,22.22
2023-03-11T18:53:24.817Z,22.22
2023-03-11T18:58:27.516Z,22.22
2023-03-11T19:03:31.651Z,22.22
2023-03-11T19:08:34.463Z,22.22
2023-03-11T19:13:46.746Z,22.22
2023-03-11T19:18:53.726Z,22.29
2023-03-11T19:23:59.899Z,22.32
2023-03-11T19:29:02.671Z,22.34
2023-03-11T19:34:06.780Z,22.35
2023-03-11T19:39:09.807Z,22.35
2023-03-11T19:44:12.643Z,22.38
2023-03-11T19:49:16.930Z,22.40
2023-03-11T19:54:20.230Z,22.40
2023-03-11T19:59:22.906Z,22.42
2023-03-11T20:04:27.380Z,22.43
2023-03-11T20:09:32.681Z,22.43
2023-03-11T20:14:35.464Z,22.45
2023-03-11T20:19:39.581Z,22.47
2023-03-11T20:24:42.320Z,22.49
2023-03-11T20:29:45.134Z,22.50
2023-03-11T20:34:49.380Z,22.49
2023-03-11T20:39:52.461Z,22.51
2023-03-11T20:44:55.566Z,22.53
2023-03-11T20:49:59.794Z,22.54
2023-03-11T20:55:02.705Z,22.56
2023-03-11T21:00:09.934Z,22.55
2023-03-11T21:05:14.079Z,22.57
2023-03-11T21:10:18.363Z,22.57
2023-03-11T21:15:21.684Z,22.58
2023-03-11T21:20:25.820Z,22.54
2023-03-11T21:25:30.374Z,22.55
2023-03-11T21:30:33.160Z,22.58
2023-03-11T21:35:37.545Z,22.58
2023-03-11T21:40:40.508Z,22.56
2023-03-11T21:45:44.095Z,22.55
2023-03-11T21:50:48.589Z,22.57
2023-03-11T21:55:51.831Z,22.52
2023-03-11T22:00:54.835Z,22.50
2023-03-11T22:05:59.993Z,22.56
2023-03-11T22:11:03.459Z,22.59
2023-03-11T22:16:07.682Z,22.59
2023-03-11T22:21:15.167Z,22.58
2023-03-11T22:26:17.947Z,22.58
2023-03-11T22:31:20.710Z,22.59
2023-03-11T22:36:24.870Z,22.58
2023-03-11T22:41:27.615Z,22.61
2023-03-11T22:46:30.737Z,22.60
2023-03-11T22:51:34.854Z,22.60
2023-03-11T22:56:37.655Z,22.54
2023-03-11T23:01:40.334Z,22.55
2023-03-11T23:06:44.397Z,22.57
2023-03-11T23:11:47.223Z,22.64
2023-03-11T23:16:49.994Z,22.65
2023-03-11T23:21:54.059Z,22.66
2023-03-11T23:26:56.739Z,22.65
2023-03-11T23:31:59.475Z,22.65
2023-03-11T23:37:05.399Z,22.65
2023-03-11T23:42:22.628Z,22.66
2023-03-11T23:47:27.558Z,22.63
2023-03-11T23:52:31.704Z,22.65
2023-03-11T23:57:35.587Z,22.65
